sensor_id;sensor_type;location;lat;lon;timestamp;pressure;altitude;pressure_sealevel;temperature;humidity
6851;BME280;3464;42.728;23.296;2023-05-02T00:02:22;95564.34;;;16.66;59.43
6851;BME280;3464;42.728;23.296;2023-05-02T00:04:49;95568.53;;;16.69;59.09
6851;BME280;3464;42.728;23.296;2023-05-02T00:07:16;95570.03;;;16.43;59.84
6851;BME280;3464;42.728;23.296;2023-05-02T00:09:43;95567.85;;;16.51;59.50
6851;BME280;3464;42.728;23.296;2023-05-02T00:12:09;95574.80;;;16.31;60.39
6851;BME280;3464;42.728;23.296;2023-05-02T00:14:36;95570.95;;;16.36;60.51
6851;BME280;3464;42.728;23.296;2023-05-02T00:17:03;95576.04;;;16.34;60.52
6851;BME280;3464;42.728;23.296;2023-05-02T00:19:31;95564.03;;;16.02;61.43
6851;BME280;3464;42.728;23.296;2023-05-02T00:21:58;95564.37;;;16.14;61.39
6851;BME280;3464;42.728;23.296;2023-05-02T00:24:25;95567.39;;;16.05;61.52
6851;BME280;3464;42.728;23.296;2023-05-02T00:26:53;95577.33;;;16.33;61.05
6851;BME280;3464;42.728;23.296;2023-05-02T00:29:20;95577.31;;;16.34;61.03
6851;BME280;3464;42.728;23.296;2023-05-02T00:31:47;95569.22;;;16.44;60.88
6851;BME280;3464;42.728;23.296;2023-05-02T00:34:14;95579.63;;;16.62;60.27
6851;BME280;3464;42.728;23.296;2023-05-02T00:36:41;95578.67;;;16.24;61.42
6851;BME280;3464;42.728;23.296;2023-05-02T00:39:08;95584.48;;;16.39;61.04
6851;BME280;3464;42.728;23.296;2023-05-02T00:41:35;95583.77;;;16.23;61.63
6851;BME280;3464;42.728;23.296;2023-05-02T00:44:02;95592.55;;;16.36;61.03
6851;BME280;3464;42.728;23.296;2023-05-02T00:46:28;95595.08;;;16.36;61.15
6851;BME280;3464;42.728;23.296;2023-05-02T00:48:55;95604.78;;;16.40;60.63
6851;BME280;3464;42.728;23.296;2023-05-02T00:51:24;95599.70;;;16.41;60.98
6851;BME280;3464;42.728;23.296;2023-05-02T00:53:50;95600.66;;;16.27;60.92
6851;BME280;3464;42.728;23.296;2023-05-02T00:56:17;95605.52;;;16.00;61.40
6851;BME280;3464;42.728;23.296;2023-05-02T00:58:43;95601.77;;;15.92;62.84
6851;BME280;3464;42.728;23.296;2023-05-02T01:01:52;95601.22;;;16.09;62.19
6851;BME280;3464;42.728;23.296;2023-05-02T01:04:29;95597.98;;;15.89;63.36
6851;BME280;3464;42.728;23.296;2023-05-02T01:06:58;95591.95;;;16.01;63.11
6851;BME280;3464;42.728;23.296;2023-05-02T01:09:47;95597.80;;;16.13;62.87
6851;BME280;3464;42.728;23.296;2023-05-02T01:12:14;95596.03;;;16.24;62.74
6851;BME280;3464;42.728;23.296;2023-05-02T01:14:40;95594.05;;;16.06;63.26
6851;BME280;3464;42.728;23.296;2023-05-02T01:17:07;95597.27;;;16.29;63.02
6851;BME280;3464;42.728;23.296;2023-05-02T01:19:35;95590.87;;;16.35;62.67
6851;BME280;3464;42.728;23.296;2023-05-02T01:22:01;95584.03;;;16.39;62.92
6851;BME280;3464;42.728;23.296;2023-05-02T01:24:29;95578.64;;;16.27;63.04
6851;BME280;3464;42.728;23.296;2023-05-02T01:29:45;95574.69;;;16.42;63.03
6851;BME280;3464;42.728;23.296;2023-05-02T01:32:12;95571.03;;;16.27;63.33
6851;BME280;3464;42.728;23.296;2023-05-02T01:34:40;95575.63;;;16.33;63.29
6851;BME280;3464;42.728;23.296;2023-05-02T01:37:07;95567.91;;;16.48;62.73
6851;BME280;3464;42.728;23.296;2023-05-02T01:39:34;95577.17;;;16.53;62.46
6851;BME280;3464;42.728;23.296;2023-05-02T01:42:02;95575.90;;;16.54;62.34
6851;BME280;3464;42.728;23.296;2023-05-02T01:44:29;95582.75;;;16.44;62.28
6851;BME280;3464;42.728;23.296;2023-05-02T01:46:56;95586.82;;;16.11;63.83
6851;BME280;3464;42.728;23.296;2023-05-02T01:49:23;95584.61;;;16.23;63.73
6851;BME280;3464;42.728;23.296;2023-05-02T01:51:50;95577.48;;;16.14;64.17
6851;BME280;3464;42.728;23.296;2023-05-02T01:54:17;95590.29;;;16.01;65.01
6851;BME280;3464;42.728;23.296;2023-05-02T01:56:44;95588.63;;;15.95;65.24
6851;BME280;3464;42.728;23.296;2023-05-02T01:59:13;95587.72;;;16.03;65.26
6851;BME280;3464;42.728;23.296;2023-05-02T02:01:41;95584.63;;;16.20;65.10
6851;BME280;3464;42.728;23.296;2023-05-02T02:04:08;95588.80;;;16.27;64.76
6851;BME280;3464;42.728;23.296;2023-05-02T02:06:35;95586.38;;;16.14;65.26
6851;BME280;3464;42.728;23.296;2023-05-02T02:09:06;95582.14;;;16.14;65.37
6851;BME280;3464;42.728;23.296;2023-05-02T02:11:36;95583.61;;;15.88;66.22
6851;BME280;3464;42.728;23.296;2023-05-02T02:14:04;95583.22;;;15.82;66.74
6851;BME280;3464;42.728;23.296;2023-05-02T02:16:31;95580.62;;;15.92;66.27
6851;BME280;3464;42.728;23.296;2023-05-02T02:18:58;95589.95;;;15.87;66.69
6851;BME280;3464;42.728;23.296;2023-05-02T02:21:27;95583.22;;;15.79;66.82
6851;BME280;3464;42.728;23.296;2023-05-02T02:23:54;95586.91;;;15.98;66.22
6851;BME280;3464;42.728;23.296;2023-05-02T02:26:20;95578.12;;;15.86;66.30
6851;BME280;3464;42.728;23.296;2023-05-02T02:28:48;95592.72;;;15.47;68.26
6851;BME280;3464;42.728;23.296;2023-05-02T02:31:14;95592.27;;;15.55;68.25
6851;BME280;3464;42.728;23.296;2023-05-02T02:33:42;95594.60;;;15.89;67.16
6851;BME280;3464;42.728;23.296;2023-05-02T02:36:20;95600.17;;;15.77;66.82
6851;BME280;3464;42.728;23.296;2023-05-02T02:38:47;95595.20;;;15.59;67.60
6851;BME280;3464;42.728;23.296;2023-05-02T02:44:40;95598.88;;;15.80;67.54
6851;BME280;3464;42.728;23.296;2023-05-02T02:47:05;95597.85;;;15.38;68.91
6851;BME280;3464;42.728;23.296;2023-05-02T02:52:27;95604.58;;;15.48;68.99
6851;BME280;3464;42.728;23.296;2023-05-02T02:55:03;95601.99;;;15.51;68.97
6851;BME280;3464;42.728;23.296;2023-05-02T02:57:36;95598.86;;;15.85;67.86
6851;BME280;3464;42.728;23.296;2023-05-02T03:00:12;95600.03;;;15.95;67.31
6851;BME280;3464;42.728;23.296;2023-05-02T03:02:37;95605.83;;;15.48;68.43
6851;BME280;3464;42.728;23.296;2023-05-02T03:05:04;95612.55;;;15.55;68.53
6851;BME280;3464;42.728;23.296;2023-05-02T03:07:31;95611.98;;;15.81;67.85
6851;BME280;3464;42.728;23.296;2023-05-02T03:10:01;95614.03;;;15.93;67.30
6851;BME280;3464;42.728;23.296;2023-05-02T03:12:26;95624.70;;;15.77;67.40
6851;BME280;3464;42.728;23.296;2023-05-02T03:14:54;95623.95;;;15.61;68.54
6851;BME280;3464;42.728;23.296;2023-05-02T03:17:20;95629.25;;;15.95;67.34
6851;BME280;3464;42.728;23.296;2023-05-02T03:19:46;95629.80;;;15.76;67.79
6851;BME280;3464;42.728;23.296;2023-05-02T03:22:13;95633.19;;;15.74;67.91
6851;BME280;3464;42.728;23.296;2023-05-02T03:24:44;95634.45;;;15.76;67.75
6851;BME280;3464;42.728;23.296;2023-05-02T03:27:13;95636.02;;;15.97;67.07
6851;BME280;3464;42.728;23.296;2023-05-02T03:29:40;95633.55;;;15.84;67.82
6851;BME280;3464;42.728;23.296;2023-05-02T03:32:11;95630.32;;;16.24;66.47
6851;BME280;3464;42.728;23.296;2023-05-02T03:34:38;95633.11;;;15.86;66.98
6851;BME280;3464;42.728;23.296;2023-05-02T03:37:04;95634.37;;;15.89;67.03
6851;BME280;3464;42.728;23.296;2023-05-02T03:39:31;95629.55;;;16.12;66.38
6851;BME280;3464;42.728;23.296;2023-05-02T03:41:58;95623.59;;;16.73;64.61
6851;BME280;3464;42.728;23.296;2023-05-02T03:44:25;95624.36;;;16.79;63.88
6851;BME280;3464;42.728;23.296;2023-05-02T03:46:53;95631.28;;;17.06;63.19
6851;BME280;3464;42.728;23.296;2023-05-02T03:49:20;95626.02;;;17.24;62.46
6851;BME280;3464;42.728;23.296;2023-05-02T03:51:47;95632.17;;;17.76;61.31
6851;BME280;3464;42.728;23.296;2023-05-02T03:54:16;95635.57;;;17.43;61.71
6851;BME280;3464;42.728;23.296;2023-05-02T03:56:43;95640.77;;;17.31;61.68
6851;BME280;3464;42.728;23.296;2023-05-02T03:59:10;95637.84;;;17.65;61.34
6851;BME280;3464;42.728;23.296;2023-05-02T04:01:37;95634.56;;;19.42;57.19
6851;BME280;3464;42.728;23.296;2023-05-02T04:04:04;95627.63;;;21.76;51.16
6851;BME280;3464;42.728;23.296;2023-05-02T04:06:31;95622.84;;;23.25;47.96
6851;BME280;3464;42.728;23.296;2023-05-02T04:08:58;95623.38;;;23.58;45.99
6851;BME280;3464;42.728;23.296;2023-05-02T04:11:25;95626.55;;;23.65;45.33
6851;BME280;3464;42.728;23.296;2023-05-02T04:13:51;95622.28;;;25.37;42.34
6851;BME280;3464;42.728;23.296;2023-05-02T04:16:18;95619.70;;;26.49;40.42
6851;BME280;3464;42.728;23.296;2023-05-02T04:18:46;95623.48;;;27.29;39.72
6851;BME280;3464;42.728;23.296;2023-05-02T04:21:13;95617.50;;;27.94;38.02
6851;BME280;3464;42.728;23.296;2023-05-02T04:23:40;95623.72;;;27.66;38.03
6851;BME280;3464;42.728;23.296;2023-05-02T04:26:06;95620.58;;;25.56;39.95
6851;BME280;3464;42.728;23.296;2023-05-02T04:28:33;95621.08;;;25.34;40.61
6851;BME280;3464;42.728;23.296;2023-05-02T04:31:00;95634.14;;;24.57;41.51
6851;BME280;3464;42.728;23.296;2023-05-02T04:33:26;95629.72;;;24.50;41.44
6851;BME280;3464;42.728;23.296;2023-05-02T04:35:53;95634.69;;;24.97;41.24
6851;BME280;3464;42.728;23.296;2023-05-02T04:38:20;95619.20;;;26.14;38.89
6851;BME280;3464;42.728;23.296;2023-05-02T04:40:48;95625.75;;;26.21;39.10
6851;BME280;3464;42.728;23.296;2023-05-02T04:43:14;95635.62;;;26.03;38.96
6851;BME280;3464;42.728;23.296;2023-05-02T04:45:41;95624.45;;;25.74;38.73
6851;BME280;3464;42.728;23.296;2023-05-02T04:48:08;95630.78;;;24.77;39.68
6851;BME280;3464;42.728;23.296;2023-05-02T04:50:36;95632.12;;;24.55;39.89
6851;BME280;3464;42.728;23.296;2023-05-02T04:53:03;95632.48;;;25.77;38.53
6851;BME280;3464;42.728;23.296;2023-05-02T04:55:30;95628.17;;;26.70;37.54
6851;BME280;3464;42.728;23.296;2023-05-02T04:57:57;95629.76;;;28.46;34.36
6851;BME280;3464;42.728;23.296;2023-05-02T05:00:23;95629.92;;;29.76;33.54
6851;BME280;3464;42.728;23.296;2023-05-02T05:02:50;95629.23;;;29.66;32.80
6851;BME280;3464;42.728;23.296;2023-05-02T05:05:17;95625.25;;;29.68;32.94
6851;BME280;3464;42.728;23.296;2023-05-02T05:07:44;95630.33;;;27.96;34.15
6851;BME280;3464;42.728;23.296;2023-05-02T05:10:11;95627.47;;;26.66;36.35
6851;BME280;3464;42.728;23.296;2023-05-02T05:12:38;95633.86;;;26.76;35.54
6851;BME280;3464;42.728;23.296;2023-05-02T05:15:06;95633.68;;;26.53;35.94
6851;BME280;3464;42.728;23.296;2023-05-02T05:17:32;95630.58;;;28.62;34.06
6851;BME280;3464;42.728;23.296;2023-05-02T05:19:59;95631.95;;;27.06;35.05
6851;BME280;3464;42.728;23.296;2023-05-02T05:22:26;95635.22;;;28.25;33.68
6851;BME280;3464;42.728;23.296;2023-05-02T05:24:53;95635.84;;;26.63;35.44
6851;BME280;3464;42.728;23.296;2023-05-02T05:27:21;95624.91;;;28.16;34.32
6851;BME280;3464;42.728;23.296;2023-05-02T05:29:47;95641.11;;;26.69;35.05
6851;BME280;3464;42.728;23.296;2023-05-02T05:32:15;95646.91;;;26.29;35.87
6851;BME280;3464;42.728;23.296;2023-05-02T05:34:41;95644.20;;;26.40;35.91
6851;BME280;3464;42.728;23.296;2023-05-02T05:37:09;95632.69;;;28.24;33.76
6851;BME280;3464;42.728;23.296;2023-05-02T05:39:35;95632.86;;;28.90;32.25
6851;BME280;3464;42.728;23.296;2023-05-02T05:42:04;95639.81;;;29.34;32.14
6851;BME280;3464;42.728;23.296;2023-05-02T05:44:32;95641.02;;;27.40;33.74
6851;BME280;3464;42.728;23.296;2023-05-02T05:46:59;95639.63;;;28.85;32.38
6851;BME280;3464;42.728;23.296;2023-05-02T05:49:25;95645.52;;;29.33;31.91
6851;BME280;3464;42.728;23.296;2023-05-02T05:51:53;95643.77;;;28.88;31.92
6851;BME280;3464;42.728;23.296;2023-05-02T05:54:20;95648.67;;;28.08;32.89
6851;BME280;3464;42.728;23.296;2023-05-02T05:56:53;95640.96;;;27.41;33.67
6851;BME280;3464;42.728;23.296;2023-05-02T05:59:21;95644.59;;;30.53;30.01
6851;BME280;3464;42.728;23.296;2023-05-02T06:01:54;95642.77;;;28.60;31.92
6851;BME280;3464;42.728;23.296;2023-05-02T06:04:22;95653.31;;;27.85;32.68
6851;BME280;3464;42.728;23.296;2023-05-02T06:06:52;95652.52;;;30.30;29.42
6851;BME280;3464;42.728;23.296;2023-05-02T06:09:20;95646.48;;;30.63;29.74
6851;BME280;3464;42.728;23.296;2023-05-02T06:11:47;95669.17;;;30.41;29.28
6851;BME280;3464;42.728;23.296;2023-05-02T06:14:15;95641.31;;;31.74;28.44
6851;BME280;3464;42.728;23.296;2023-05-02T06:16:45;95644.14;;;32.26;27.77
6851;BME280;3464;42.728;23.296;2023-05-02T06:19:13;95648.63;;;32.85;27.32
6851;BME280;3464;42.728;23.296;2023-05-02T06:21:41;95644.67;;;31.31;28.33
6851;BME280;3464;42.728;23.296;2023-05-02T06:24:11;95636.46;;;31.24;28.31
6851;BME280;3464;42.728;23.296;2023-05-02T06:26:39;95632.53;;;31.57;27.83
6851;BME280;3464;42.728;23.296;2023-05-02T06:29:07;95641.46;;;29.28;29.90
6851;BME280;3464;42.728;23.296;2023-05-02T06:31:37;95648.22;;;31.43;27.78
6851;BME280;3464;42.728;23.296;2023-05-02T06:34:07;95629.04;;;28.82;29.76
6851;BME280;3464;42.728;23.296;2023-05-02T06:36:34;95636.23;;;28.46;30.43
6851;BME280;3464;42.728;23.296;2023-05-02T06:39:01;95628.91;;;32.57;26.55
6851;BME280;3464;42.728;23.296;2023-05-02T06:41:28;95630.06;;;32.41;26.12
6851;BME280;3464;42.728;23.296;2023-05-02T06:43:55;95652.67;;;29.57;28.66
6851;BME280;3464;42.728;23.296;2023-05-02T06:46:21;95636.84;;;30.11;28.91
6851;BME280;3464;42.728;23.296;2023-05-02T06:48:50;95638.64;;;31.82;27.05
6851;BME280;3464;42.728;23.296;2023-05-02T06:51:17;95629.80;;;31.20;27.25
6851;BME280;3464;42.728;23.296;2023-05-02T06:53:45;95631.58;;;29.70;28.55
6851;BME280;3464;42.728;23.296;2023-05-02T06:56:11;95628.55;;;32.20;26.17
6851;BME280;3464;42.728;23.296;2023-05-02T06:58:41;95628.64;;;34.10;24.25
6851;BME280;3464;42.728;23.296;2023-05-02T07:01:08;95641.82;;;33.07;24.87
6851;BME280;3464;42.728;23.296;2023-05-02T07:03:35;95633.08;;;32.29;25.83
6851;BME280;3464;42.728;23.296;2023-05-02T07:06:02;95622.84;;;31.01;26.91
6851;BME280;3464;42.728;23.296;2023-05-02T07:08:29;95631.03;;;31.21;26.50
6851;BME280;3464;42.728;23.296;2023-05-02T07:10:56;95642.94;;;30.25;27.33
6851;BME280;3464;42.728;23.296;2023-05-02T07:13:22;95631.86;;;29.58;28.45
6851;BME280;3464;42.728;23.296;2023-05-02T07:15:50;95635.11;;;30.46;27.25
6851;BME280;3464;42.728;23.296;2023-05-02T07:18:16;95645.44;;;28.51;29.00
6851;BME280;3464;42.728;23.296;2023-05-02T07:20:43;95647.42;;;30.01;27.40
6851;BME280;3464;42.728;23.296;2023-05-02T07:23:10;95639.38;;;29.55;28.08
6851;BME280;3464;42.728;23.296;2023-05-02T07:25:37;95635.89;;;31.70;26.43
6851;BME280;3464;42.728;23.296;2023-05-02T07:28:05;95636.93;;;31.43;26.25
6851;BME280;3464;42.728;23.296;2023-05-02T07:30:31;95638.26;;;31.55;26.42
6851;BME280;3464;42.728;23.296;2023-05-02T07:32:57;95628.14;;;34.65;23.67
6851;BME280;3464;42.728;23.296;2023-05-02T07:35:24;95620.47;;;36.92;21.69
6851;BME280;3464;42.728;23.296;2023-05-02T07:37:51;95637.34;;;35.75;22.29
6851;BME280;3464;42.728;23.296;2023-05-02T07:40:18;95626.70;;;36.12;22.13
6851;BME280;3464;42.728;23.296;2023-05-02T07:42:45;95637.48;;;35.53;21.88
6851;BME280;3464;42.728;23.296;2023-05-02T07:45:11;95646.05;;;31.37;25.26
6851;BME280;3464;42.728;23.296;2023-05-02T07:47:41;95646.02;;;29.31;27.43
6851;BME280;3464;42.728;23.296;2023-05-02T07:53:06;95654.53;;;25.94;32.13
6851;BME280;3464;42.728;23.296;2023-05-02T07:55:41;95658.56;;;25.11;32.72
6851;BME280;3464;42.728;23.296;2023-05-02T07:58:11;95650.56;;;24.66;33.69
6851;BME280;3464;42.728;23.296;2023-05-02T08:00:50;95648.95;;;24.41;34.00
6851;BME280;3464;42.728;23.296;2023-05-02T08:03:17;95652.59;;;24.25;34.73
6851;BME280;3464;42.728;23.296;2023-05-02T08:05:51;95658.13;;;23.33;35.75
6851;BME280;3464;42.728;23.296;2023-05-02T08:08:19;95655.25;;;23.53;36.47
6851;BME280;3464;42.728;23.296;2023-05-02T08:10:55;95655.53;;;23.07;36.29
6851;BME280;3464;42.728;23.296;2023-05-02T08:13:23;95656.03;;;23.31;36.11
6851;BME280;3464;42.728;23.296;2023-05-02T08:15:50;95650.70;;;23.60;36.35
6851;BME280;3464;42.728;23.296;2023-05-02T08:18:17;95655.52;;;23.81;35.47
6851;BME280;3464;42.728;23.296;2023-05-02T08:20:46;95656.27;;;23.72;35.76
6851;BME280;3464;42.728;23.296;2023-05-02T08:26:13;95656.22;;;24.31;36.70
6851;BME280;3464;42.728;23.296;2023-05-02T08:28:46;95648.83;;;23.53;36.47
6851;BME280;3464;42.728;23.296;2023-05-02T08:31:14;95660.44;;;23.01;36.60
6851;BME280;3464;42.728;23.296;2023-05-02T08:33:45;95649.70;;;23.02;36.67
6851;BME280;3464;42.728;23.296;2023-05-02T08:36:16;95650.86;;;24.03;36.20
6851;BME280;3464;42.728;23.296;2023-05-02T08:38:46;95651.03;;;23.74;36.01
6851;BME280;3464;42.728;23.296;2023-05-02T08:41:15;95646.38;;;23.97;35.46
6851;BME280;3464;42.728;23.296;2023-05-02T08:43:41;95650.43;;;23.79;35.58
6851;BME280;3464;42.728;23.296;2023-05-02T08:46:09;95647.27;;;23.48;35.92
6851;BME280;3464;42.728;23.296;2023-05-02T08:48:36;95651.92;;;24.31;35.67
6851;BME280;3464;42.728;23.296;2023-05-02T08:51:03;95653.42;;;23.79;35.30
6851;BME280;3464;42.728;23.296;2023-05-02T08:53:32;95655.20;;;23.05;36.04
6851;BME280;3464;42.728;23.296;2023-05-02T08:55:57;95645.88;;;23.75;35.80
6851;BME280;3464;42.728;23.296;2023-05-02T08:58:26;95645.46;;;23.74;34.99
6851;BME280;3464;42.728;23.296;2023-05-02T09:00:54;95642.13;;;22.99;36.16
6851;BME280;3464;42.728;23.296;2023-05-02T09:03:38;95652.73;;;23.39;36.05
6851;BME280;3464;42.728;23.296;2023-05-02T09:06:08;95641.22;;;23.73;35.53
6851;BME280;3464;42.728;23.296;2023-05-02T09:08:36;95631.33;;;24.20;35.26
6851;BME280;3464;42.728;23.296;2023-05-02T09:11:03;95649.50;;;23.08;35.94
6851;BME280;3464;42.728;23.296;2023-05-02T09:13:36;95648.41;;;23.03;35.24
6851;BME280;3464;42.728;23.296;2023-05-02T09:16:12;95621.83;;;23.42;35.60
6851;BME280;3464;42.728;23.296;2023-05-02T09:18:42;95630.40;;;23.30;35.85
6851;BME280;3464;42.728;23.296;2023-05-02T09:21:12;95635.52;;;22.53;36.38
6851;BME280;3464;42.728;23.296;2023-05-02T09:23:40;95632.00;;;22.28;36.30
6851;BME280;3464;42.728;23.296;2023-05-02T09:26:22;95623.44;;;23.07;36.01
6851;BME280;3464;42.728;23.296;2023-05-02T09:28:49;95612.69;;;23.68;35.20
6851;BME280;3464;42.728;23.296;2023-05-02T09:31:32;95620.62;;;23.51;35.30
6851;BME280;3464;42.728;23.296;2023-05-02T09:34:06;95624.45;;;23.75;35.40
6851;BME280;3464;42.728;23.296;2023-05-02T09:36:25;95612.80;;;24.66;34.29
6851;BME280;3464;42.728;23.296;2023-05-02T09:38:52;95617.95;;;24.86;33.45
6851;BME280;3464;42.728;23.296;2023-05-02T09:41:19;95616.27;;;24.54;33.50
6851;BME280;3464;42.728;23.296;2023-05-02T09:44:01;95627.91;;;24.63;33.04
6851;BME280;3464;42.728;23.296;2023-05-02T09:46:29;95605.63;;;24.41;33.50
6851;BME280;3464;42.728;23.296;2023-05-02T09:48:57;95611.44;;;23.79;33.89
6851;BME280;3464;42.728;23.296;2023-05-02T09:51:24;95603.98;;;24.50;33.02
6851;BME280;3464;42.728;23.296;2023-05-02T09:53:51;95606.36;;;24.66;32.42
6851;BME280;3464;42.728;23.296;2023-05-02T09:56:17;95597.84;;;24.85;32.40
6851;BME280;3464;42.728;23.296;2023-05-02T09:58:44;95607.53;;;23.69;33.99
6851;BME280;3464;42.728;23.296;2023-05-02T10:01:14;95608.78;;;23.35;34.40
6851;BME280;3464;42.728;23.296;2023-05-02T10:03:45;95595.97;;;23.80;33.99
6851;BME280;3464;42.728;23.296;2023-05-02T10:06:10;95610.48;;;23.10;33.77
6851;BME280;3464;42.728;23.296;2023-05-02T10:08:38;95605.84;;;23.34;34.04
6851;BME280;3464;42.728;23.296;2023-05-02T10:11:07;95595.34;;;23.28;33.72
6851;BME280;3464;42.728;23.296;2023-05-02T10:13:34;95597.03;;;23.98;33.65
6851;BME280;3464;42.728;23.296;2023-05-02T10:16:03;95581.48;;;24.34;33.17
6851;BME280;3464;42.728;23.296;2023-05-02T10:18:41;95581.86;;;24.35;33.22
6851;BME280;3464;42.728;23.296;2023-05-02T10:21:09;95583.25;;;24.75;32.84
6851;BME280;3464;42.728;23.296;2023-05-02T10:23:35;95581.73;;;24.38;32.36
6851;BME280;3464;42.728;23.296;2023-05-02T10:26:04;95585.27;;;23.57;33.41
6851;BME280;3464;42.728;23.296;2023-05-02T10:28:31;95577.63;;;23.44;33.56
6851;BME280;3464;42.728;23.296;2023-05-02T10:31:00;95577.55;;;23.69;34.06
6851;BME280;3464;42.728;23.296;2023-05-02T10:33:32;95569.27;;;23.39;33.95
6851;BME280;3464;42.728;23.296;2023-05-02T10:35:59;95579.87;;;23.30;33.88
6851;BME280;3464;42.728;23.296;2023-05-02T10:38:27;95566.06;;;23.89;33.38
6851;BME280;3464;42.728;23.296;2023-05-02T10:40:56;95572.78;;;23.71;33.83
6851;BME280;3464;42.728;23.296;2023-05-02T10:43:25;95571.80;;;23.03;34.08
6851;BME280;3464;42.728;23.296;2023-05-02T10:45:51;95573.03;;;23.41;33.33
6851;BME280;3464;42.728;23.296;2023-05-02T10:48:22;95578.81;;;23.47;33.95
6851;BME280;3464;42.728;23.296;2023-05-02T10:50:52;95560.30;;;23.13;33.99
6851;BME280;3464;42.728;23.296;2023-05-02T10:53:30;95567.96;;;24.07;33.68
6851;BME280;3464;42.728;23.296;2023-05-02T10:56:06;95558.37;;;23.67;34.24
6851;BME280;3464;42.728;23.296;2023-05-02T10:58:33;95578.70;;;23.38;33.47
6851;BME280;3464;42.728;23.296;2023-05-02T11:06:29;95551.91;;;23.90;32.86
6851;BME280;3464;42.728;23.296;2023-05-02T11:11:41;95554.08;;;24.64;32.59
6851;BME280;3464;42.728;23.296;2023-05-02T11:14:10;95555.14;;;24.59;32.51
6851;BME280;3464;42.728;23.296;2023-05-02T11:19:18;95542.14;;;24.20;32.48
6851;BME280;3464;42.728;23.296;2023-05-02T11:21:47;95535.64;;;23.78;33.52
6851;BME280;3464;42.728;23.296;2023-05-02T11:27:37;95536.40;;;24.96;32.47
6851;BME280;3464;42.728;23.296;2023-05-02T11:30:07;95535.61;;;24.02;33.00
6851;BME280;3464;42.728;23.296;2023-05-02T11:35:25;95526.51;;;25.46;32.39
6851;BME280;3464;42.728;23.296;2023-05-02T11:37:56;95536.34;;;25.46;32.81
6851;BME280;3464;42.728;23.296;2023-05-02T11:40:23;95517.09;;;25.35;31.88
6851;BME280;3464;42.728;23.296;2023-05-02T11:42:49;95515.80;;;26.09;31.22
6851;BME280;3464;42.728;23.296;2023-05-02T11:45:16;95519.27;;;26.60;30.95
6851;BME280;3464;42.728;23.296;2023-05-02T11:47:42;95524.00;;;25.44;31.92
6851;BME280;3464;42.728;23.296;2023-05-02T11:50:09;95512.98;;;25.78;31.92
6851;BME280;3464;42.728;23.296;2023-05-02T11:52:40;95494.88;;;26.50;30.81
6851;BME280;3464;42.728;23.296;2023-05-02T11:55:11;95496.59;;;25.88;31.63
6851;BME280;3464;42.728;23.296;2023-05-02T11:57:38;95488.97;;;26.21;30.86
6851;BME280;3464;42.728;23.296;2023-05-02T12:00:06;95495.17;;;25.90;31.41
6851;BME280;3464;42.728;23.296;2023-05-02T12:02:37;95492.38;;;25.40;31.97
6851;BME280;3464;42.728;23.296;2023-05-02T12:05:06;95488.45;;;25.60;32.20
6851;BME280;3464;42.728;23.296;2023-05-02T12:07:42;95494.28;;;25.36;31.56
6851;BME280;3464;42.728;23.296;2023-05-02T12:10:09;95485.45;;;25.50;31.93
6851;BME280;3464;42.728;23.296;2023-05-02T12:12:39;95457.46;;;25.79;31.18
6851;BME280;3464;42.728;23.296;2023-05-02T12:15:07;95472.34;;;26.01;31.85
6851;BME280;3464;42.728;23.296;2023-05-02T12:17:47;95467.95;;;25.84;31.71
6851;BME280;3464;42.728;23.296;2023-05-02T12:20:15;95475.03;;;24.56;33.08
6851;BME280;3464;42.728;23.296;2023-05-02T12:22:43;95469.73;;;25.18;32.15
6851;BME280;3464;42.728;23.296;2023-05-02T12:25:11;95466.81;;;25.07;32.10
6851;BME280;3464;42.728;23.296;2023-05-02T12:27:38;95466.16;;;25.94;31.68
6851;BME280;3464;42.728;23.296;2023-05-02T12:30:23;95497.95;;;25.40;31.41
6851;BME280;3464;42.728;23.296;2023-05-02T12:33:07;95453.77;;;26.37;31.19
6851;BME280;3464;42.728;23.296;2023-05-02T12:35:33;95469.37;;;25.36;31.07
6851;BME280;3464;42.728;23.296;2023-05-02T12:38:16;95449.78;;;25.04;31.52
6851;BME280;3464;42.728;23.296;2023-05-02T12:43:22;95441.42;;;25.90;30.93
6851;BME280;3464;42.728;23.296;2023-05-02T12:45:50;95461.73;;;25.05;30.98
6851;BME280;3464;42.728;23.296;2023-05-02T12:48:24;95453.03;;;25.17;30.87
6851;BME280;3464;42.728;23.296;2023-05-02T13:00:39;95423.96;;;25.87;30.25
6851;BME280;3464;42.728;23.296;2023-05-02T13:03:06;95416.34;;;25.76;30.10
6851;BME280;3464;42.728;23.296;2023-05-02T13:05:55;95427.67;;;25.64;30.34
6851;BME280;3464;42.728;23.296;2023-05-02T13:08:23;95430.80;;;25.43;30.62
6851;BME280;3464;42.728;23.296;2023-05-02T13:10:52;95429.20;;;24.93;30.25
6851;BME280;3464;42.728;23.296;2023-05-02T13:13:18;95424.36;;;24.96;30.31
6851;BME280;3464;42.728;23.296;2023-05-02T13:15:45;95428.32;;;24.84;30.82
6851;BME280;3464;42.728;23.296;2023-05-02T13:18:12;95428.09;;;24.10;31.37
6851;BME280;3464;42.728;23.296;2023-05-02T13:20:39;95421.56;;;24.43;30.99
6851;BME280;3464;42.728;23.296;2023-05-02T13:23:05;95448.04;;;23.95;31.36
6851;BME280;3464;42.728;23.296;2023-05-02T13:25:32;95449.67;;;23.85;31.35
6851;BME280;3464;42.728;23.296;2023-05-02T13:28:03;95450.91;;;23.65;31.61
6851;BME280;3464;42.728;23.296;2023-05-02T13:40:23;95421.27;;;24.98;30.51
6851;BME280;3464;42.728;23.296;2023-05-02T13:42:51;95450.05;;;24.98;30.66
6851;BME280;3464;42.728;23.296;2023-05-02T13:48:47;95438.06;;;24.28;30.82
6851;BME280;3464;42.728;23.296;2023-05-02T13:51:45;95426.41;;;24.39;31.17
6851;BME280;3464;42.728;23.296;2023-05-02T14:30:36;95403.71;;;25.16;30.05
6851;BME280;3464;42.728;23.296;2023-05-02T14:33:29;95417.81;;;24.89;30.19
6851;BME280;3464;42.728;23.296;2023-05-02T14:35:57;95428.03;;;24.61;30.25
6851;BME280;3464;42.728;23.296;2023-05-02T14:38:31;95436.91;;;24.04;30.52
6851;BME280;3464;42.728;23.296;2023-05-02T14:41:03;95412.98;;;24.03;30.63
6851;BME280;3464;42.728;23.296;2023-05-02T14:43:30;95404.27;;;24.16;30.50
6851;BME280;3464;42.728;23.296;2023-05-02T14:48:59;95407.23;;;24.86;30.52
6851;BME280;3464;42.728;23.296;2023-05-02T14:51:27;95398.22;;;25.14;30.26
6851;BME280;3464;42.728;23.296;2023-05-02T14:53:53;95408.17;;;24.75;30.22
6851;BME280;3464;42.728;23.296;2023-05-02T14:56:20;95420.25;;;24.63;30.06